sensor_id;sensor_type;location;lat;lon;timestamp;P1;durP1;ratioP1;P2;durP2;ratioP2
71696;SDS011;68167;59.120;37.898;2023-04-09T00:00:09;13.00;;;4.57;;
71696;SDS011;68167;59.120;37.898;2023-04-09T00:02:39;11.27;;;4.83;;
71696;SDS011;68167;59.120;37.898;2023-04-09T00:05:05;14.27;;;4.37;;
71696;SDS011;68167;59.120;37.898;2023-04-09T00:07:32;17.33;;;7.00;;
71696;SDS011;68167;59.120;37.898;2023-04-09T00:09:58;12.47;;;5.00;;
71696;SDS011;68167;59.120;37.898;2023-04-09T00:12:25;16.77;;;6.67;;
71696;SDS011;68167;59.120;37.898;2023-04-09T00:14:51;25.13;;;6.37;;
71696;SDS011;68167;59.120;37.898;2023-04-09T00:17:17;16.40;;;6.17;;
71696;SDS011;68167;59.120;37.898;2023-04-09T00:19:44;18.70;;;7.97;;
71696;SDS011;68167;59.120;37.898;2023-04-09T00:22:10;20.23;;;7.43;;
71696;SDS011;68167;59.120;37.898;2023-04-09T00:24:37;19.37;;;7.63;;
71696;SDS011;68167;59.120;37.898;2023-04-09T00:27:03;20.83;;;8.00;;
71696;SDS011;68167;59.120;37.898;2023-04-09T00:29:31;19.00;;;7.20;;
71696;SDS011;68167;59.120;37.898;2023-04-09T00:31:58;26.63;;;8.93;;
71696;SDS011;68167;59.120;37.898;2023-04-09T00:34:24;21.07;;;7.77;;
71696;SDS011;68167;59.120;37.898;2023-04-09T00:36:51;18.50;;;7.73;;
71696;SDS011;68167;59.120;37.898;2023-04-09T00:39:17;17.33;;;7.20;;
71696;SDS011;68167;59.120;37.898;2023-04-09T00:41:43;21.13;;;8.63;;
71696;SDS011;68167;59.120;37.898;2023-04-09T00:44:10;22.57;;;8.63;;
71696;SDS011;68167;59.120;37.898;2023-04-09T00:46:36;21.07;;;8.80;;
71696;SDS011;68167;59.120;37.898;2023-04-09T00:49:04;21.17;;;8.20;;
71696;SDS011;68167;59.120;37.898;2023-04-09T00:51:30;23.73;;;8.87;;
71696;SDS011;68167;59.120;37.898;2023-04-09T00:53:58;23.60;;;9.10;;
71696;SDS011;68167;59.120;37.898;2023-04-09T00:56:30;26.30;;;9.63;;
71696;SDS011;68167;59.120;37.898;2023-04-09T00:58:57;23.50;;;9.40;;
71696;SDS011;68167;59.120;37.898;2023-04-09T01:01:24;26.10;;;10.20;;
71696;SDS011;68167;59.120;37.898;2023-04-09T01:03:50;21.97;;;10.00;;
71696;SDS011;68167;59.120;37.898;2023-04-09T01:06:21;20.00;;;9.50;;
71696;SDS011;68167;59.120;37.898;2023-04-09T01:09:20;19.50;;;8.83;;
71696;SDS011;68167;59.120;37.898;2023-04-09T01:15:05;27.30;;;10.00;;
71696;SDS011;68167;59.120;37.898;2023-04-09T01:17:46;26.10;;;10.10;;
71696;SDS011;68167;59.120;37.898;2023-04-09T01:20:21;25.83;;;9.43;;
71696;SDS011;68167;59.120;37.898;2023-04-09T01:28:32;27.67;;;9.00;;
71696;SDS011;68167;59.120;37.898;2023-04-09T01:31:03;18.13;;;8.60;;
71696;SDS011;68167;59.120;37.898;2023-04-09T01:33:34;21.53;;;8.80;;
71696;SDS011;68167;59.120;37.898;2023-04-09T01:36:01;14.23;;;7.73;;
71696;SDS011;68167;59.120;37.898;2023-04-09T01:38:30;18.33;;;8.67;;
71696;SDS011;68167;59.120;37.898;2023-04-09T01:41:00;23.80;;;8.17;;
71696;SDS011;68167;59.120;37.898;2023-04-09T01:43:28;19.60;;;7.63;;
71696;SDS011;68167;59.120;37.898;2023-04-09T01:45:59;24.93;;;7.73;;
71696;SDS011;68167;59.120;37.898;2023-04-09T01:48:28;17.27;;;7.20;;
71696;SDS011;68167;59.120;37.898;2023-04-09T01:50:59;17.97;;;7.73;;
71696;SDS011;68167;59.120;37.898;2023-04-09T01:53:25;17.63;;;7.13;;
71696;SDS011;68167;59.120;37.898;2023-04-09T01:55:59;15.33;;;6.93;;
71696;SDS011;68167;59.120;37.898;2023-04-09T01:58:31;19.20;;;6.80;;
71696;SDS011;68167;59.120;37.898;2023-04-09T02:01:00;21.10;;;7.20;;
71696;SDS011;68167;59.120;37.898;2023-04-09T02:03:38;20.83;;;7.00;;
71696;SDS011;68167;59.120;37.898;2023-04-09T02:06:19;15.67;;;7.20;;
71696;SDS011;68167;59.120;37.898;2023-04-09T02:08:57;20.70;;;6.87;;
71696;SDS011;68167;59.120;37.898;2023-04-09T02:11:25;19.97;;;7.47;;
71696;SDS011;68167;59.120;37.898;2023-04-09T02:13:54;14.57;;;7.20;;
71696;SDS011;68167;59.120;37.898;2023-04-09T02:16:42;22.43;;;7.70;;
71696;SDS011;68167;59.120;37.898;2023-04-09T02:19:10;15.03;;;7.30;;
71696;SDS011;68167;59.120;37.898;2023-04-09T02:21:36;20.60;;;7.80;;
71696;SDS011;68167;59.120;37.898;2023-04-09T02:24:03;19.17;;;7.73;;
71696;SDS011;68167;59.120;37.898;2023-04-09T02:26:29;19.93;;;7.63;;
71696;SDS011;68167;59.120;37.898;2023-04-09T02:28:57;19.40;;;7.37;;
71696;SDS011;68167;59.120;37.898;2023-04-09T02:31:23;12.67;;;7.07;;
71696;SDS011;68167;59.120;37.898;2023-04-09T02:33:50;20.50;;;8.13;;
71696;SDS011;68167;59.120;37.898;2023-04-09T02:36:17;15.60;;;7.50;;
71696;SDS011;68167;59.120;37.898;2023-04-09T02:38:44;19.13;;;7.67;;
71696;SDS011;68167;59.120;37.898;2023-04-09T02:41:10;17.23;;;7.73;;
71696;SDS011;68167;59.120;37.898;2023-04-09T02:43:36;18.03;;;7.57;;
71696;SDS011;68167;59.120;37.898;2023-04-09T02:46:03;21.67;;;7.70;;
71696;SDS011;68167;59.120;37.898;2023-04-09T02:48:30;21.17;;;7.83;;
71696;SDS011;68167;59.120;37.898;2023-04-09T02:50:56;25.77;;;8.17;;
71696;SDS011;68167;59.120;37.898;2023-04-09T02:53:22;16.27;;;6.70;;
71696;SDS011;68167;59.120;37.898;2023-04-09T02:55:49;17.80;;;7.93;;
71696;SDS011;68167;59.120;37.898;2023-04-09T02:58:20;20.10;;;7.57;;
71696;SDS011;68167;59.120;37.898;2023-04-09T03:00:46;24.20;;;7.30;;
71696;SDS011;68167;59.120;37.898;2023-04-09T03:03:13;22.97;;;7.77;;
71696;SDS011;68167;59.120;37.898;2023-04-09T03:05:39;17.50;;;8.07;;
71696;SDS011;68167;59.120;37.898;2023-04-09T03:08:05;20.50;;;7.67;;
71696;SDS011;68167;59.120;37.898;2023-04-09T03:10:32;20.63;;;8.30;;
71696;SDS011;68167;59.120;37.898;2023-04-09T03:12:58;25.80;;;7.77;;
71696;SDS011;68167;59.120;37.898;2023-04-09T03:15:25;25.17;;;7.83;;
71696;SDS011;68167;59.120;37.898;2023-04-09T03:17:51;19.60;;;8.20;;
71696;SDS011;68167;59.120;37.898;2023-04-09T03:20:20;21.07;;;8.53;;
71696;SDS011;68167;59.120;37.898;2023-04-09T03:22:46;30.77;;;8.50;;
71696;SDS011;68167;59.120;37.898;2023-04-09T03:25:30;18.40;;;8.87;;
71696;SDS011;68167;59.120;37.898;2023-04-09T03:27:59;28.73;;;9.77;;
71696;SDS011;68167;59.120;37.898;2023-04-09T03:30:38;31.53;;;9.37;;
71696;SDS011;68167;59.120;37.898;2023-04-09T03:33:05;32.50;;;9.60;;
71696;SDS011;68167;59.120;37.898;2023-04-09T03:35:37;23.47;;;10.13;;
71696;SDS011;68167;59.120;37.898;2023-04-09T03:38:04;26.40;;;10.40;;
71696;SDS011;68167;59.120;37.898;2023-04-09T03:40:31;38.67;;;10.07;;
71696;SDS011;68167;59.120;37.898;2023-04-09T03:42:58;30.70;;;10.53;;
71696;SDS011;68167;59.120;37.898;2023-04-09T03:45:24;34.67;;;12.83;;
71696;SDS011;68167;59.120;37.898;2023-04-09T03:47:53;41.73;;;13.97;;
71696;SDS011;68167;59.120;37.898;2023-04-09T03:50:22;33.30;;;14.50;;
71696;SDS011;68167;59.120;37.898;2023-04-09T03:52:53;42.70;;;14.93;;
71696;SDS011;68167;59.120;37.898;2023-04-09T03:55:19;35.10;;;14.57;;
71696;SDS011;68167;59.120;37.898;2023-04-09T03:57:52;28.20;;;13.40;;
71696;SDS011;68167;59.120;37.898;2023-04-09T04:00:25;26.40;;;12.57;;
71696;SDS011;68167;59.120;37.898;2023-04-09T04:03:11;32.83;;;11.93;;
71696;SDS011;68167;59.120;37.898;2023-04-09T04:06:01;40.50;;;13.40;;
71696;SDS011;68167;59.120;37.898;2023-04-09T04:08:36;29.10;;;12.90;;
71696;SDS011;68167;59.120;37.898;2023-04-09T04:11:03;30.33;;;11.80;;
71696;SDS011;68167;59.120;37.898;2023-04-09T04:13:30;29.27;;;12.40;;
71696;SDS011;68167;59.120;37.898;2023-04-09T04:15:58;38.33;;;13.50;;
71696;SDS011;68167;59.120;37.898;2023-04-09T04:18:25;34.23;;;12.17;;
71696;SDS011;68167;59.120;37.898;2023-04-09T04:20:53;28.27;;;13.40;;
71696;SDS011;68167;59.120;37.898;2023-04-09T04:23:19;48.30;;;18.30;;
71696;SDS011;68167;59.120;37.898;2023-04-09T04:25:52;43.70;;;18.63;;
71696;SDS011;68167;59.120;37.898;2023-04-09T04:28:25;54.37;;;22.30;;
71696;SDS011;68167;59.120;37.898;2023-04-09T04:30:51;51.67;;;24.50;;
71696;SDS011;68167;59.120;37.898;2023-04-09T04:33:20;50.97;;;25.20;;
71696;SDS011;68167;59.120;37.898;2023-04-09T04:36:02;51.47;;;25.50;;
71696;SDS011;68167;59.120;37.898;2023-04-09T04:38:35;48.90;;;23.50;;
71696;SDS011;68167;59.120;37.898;2023-04-09T04:41:06;53.97;;;20.00;;
71696;SDS011;68167;59.120;37.898;2023-04-09T04:43:37;41.33;;;18.03;;
71696;SDS011;68167;59.120;37.898;2023-04-09T04:46:06;32.90;;;15.47;;
71696;SDS011;68167;59.120;37.898;2023-04-09T04:48:33;41.33;;;13.43;;
71696;SDS011;68167;59.120;37.898;2023-04-09T04:51:00;38.57;;;12.93;;
71696;SDS011;68167;59.120;37.898;2023-04-09T04:53:33;38.13;;;13.53;;
71696;SDS011;68167;59.120;37.898;2023-04-09T04:56:11;34.33;;;12.43;;
71696;SDS011;68167;59.120;37.898;2023-04-09T04:58:47;28.77;;;14.00;;
71696;SDS011;68167;59.120;37.898;2023-04-09T05:01:18;35.87;;;13.60;;
71696;SDS011;68167;59.120;37.898;2023-04-09T05:03:44;36.73;;;12.80;;
71696;SDS011;68167;59.120;37.898;2023-04-09T05:06:30;37.07;;;13.57;;
71696;SDS011;68167;59.120;37.898;2023-04-09T05:08:59;35.03;;;13.77;;
71696;SDS011;68167;59.120;37.898;2023-04-09T05:11:32;35.77;;;13.00;;
71696;SDS011;68167;59.120;37.898;2023-04-09T05:13:59;30.97;;;12.40;;
71696;SDS011;68167;59.120;37.898;2023-04-09T05:16:26;31.03;;;12.23;;
71696;SDS011;68167;59.120;37.898;2023-04-09T05:19:00;32.83;;;13.30;;
71696;SDS011;68167;59.120;37.898;2023-04-09T05:21:26;30.50;;;11.53;;
71696;SDS011;68167;59.120;37.898;2023-04-09T05:23:55;28.47;;;11.27;;
71696;SDS011;68167;59.120;37.898;2023-04-09T05:26:21;27.53;;;11.53;;
71696;SDS011;68167;59.120;37.898;2023-04-09T05:28:52;28.17;;;11.13;;
71696;SDS011;68167;59.120;37.898;2023-04-09T05:31:24;27.03;;;10.27;;
71696;SDS011;68167;59.120;37.898;2023-04-09T05:33:55;31.60;;;10.17;;
71696;SDS011;68167;59.120;37.898;2023-04-09T05:36:31;34.23;;;9.60;;
71696;SDS011;68167;59.120;37.898;2023-04-09T05:38:57;25.57;;;10.27;;
71696;SDS011;68167;59.120;37.898;2023-04-09T05:41:23;23.67;;;9.03;;
71696;SDS011;68167;59.120;37.898;2023-04-09T05:44:16;24.80;;;9.47;;
71696;SDS011;68167;59.120;37.898;2023-04-09T05:46:43;28.57;;;8.83;;
71696;SDS011;68167;59.120;37.898;2023-04-09T05:49:11;24.60;;;8.57;;
71696;SDS011;68167;59.120;37.898;2023-04-09T05:51:39;22.73;;;8.20;;
71696;SDS011;68167;59.120;37.898;2023-04-09T05:54:08;23.20;;;8.13;;
71696;SDS011;68167;59.120;37.898;2023-04-09T05:56:42;25.83;;;8.37;;
71696;SDS011;68167;59.120;37.898;2023-04-09T05:59:09;26.43;;;8.10;;
71696;SDS011;68167;59.120;37.898;2023-04-09T06:01:36;16.87;;;6.33;;
71696;SDS011;68167;59.120;37.898;2023-04-09T06:04:02;21.60;;;6.57;;
71696;SDS011;68167;59.120;37.898;2023-04-09T06:06:29;15.50;;;5.80;;
71696;SDS011;68167;59.120;37.898;2023-04-09T06:08:55;20.70;;;5.80;;
71696;SDS011;68167;59.120;37.898;2023-04-09T06:11:22;24.40;;;6.33;;
71696;SDS011;68167;59.120;37.898;2023-04-09T06:13:48;18.87;;;6.83;;
71696;SDS011;68167;59.120;37.898;2023-04-09T06:16:15;16.97;;;5.87;;
71696;SDS011;68167;59.120;37.898;2023-04-09T06:18:41;22.40;;;5.97;;
71696;SDS011;68167;59.120;37.898;2023-04-09T06:21:07;27.70;;;6.73;;
71696;SDS011;68167;59.120;37.898;2023-04-09T06:23:35;21.57;;;6.10;;
71696;SDS011;68167;59.120;37.898;2023-04-09T06:26:02;25.60;;;7.37;;
71696;SDS011;68167;59.120;37.898;2023-04-09T06:28:28;28.87;;;7.40;;
71696;SDS011;68167;59.120;37.898;2023-04-09T06:30:54;26.60;;;6.80;;
71696;SDS011;68167;59.120;37.898;2023-04-09T06:33:21;28.67;;;7.13;;
71696;SDS011;68167;59.120;37.898;2023-04-09T06:35:47;28.00;;;7.00;;
71696;SDS011;68167;59.120;37.898;2023-04-09T06:38:14;21.70;;;6.87;;
71696;SDS011;68167;59.120;37.898;2023-04-09T06:40:41;28.27;;;7.17;;
71696;SDS011;68167;59.120;37.898;2023-04-09T06:43:07;22.30;;;7.60;;
71696;SDS011;68167;59.120;37.898;2023-04-09T06:45:43;25.87;;;6.93;;
71696;SDS011;68167;59.120;37.898;2023-04-09T06:48:09;24.13;;;7.33;;
71696;SDS011;68167;59.120;37.898;2023-04-09T06:50:36;16.23;;;5.97;;
71696;SDS011;68167;59.120;37.898;2023-04-09T06:53:02;25.43;;;6.50;;
71696;SDS011;68167;59.120;37.898;2023-04-09T06:55:28;16.27;;;6.53;;
71696;SDS011;68167;59.120;37.898;2023-04-09T06:58:00;18.20;;;6.00;;
71696;SDS011;68167;59.120;37.898;2023-04-09T07:00:27;21.47;;;5.07;;
71696;SDS011;68167;59.120;37.898;2023-04-09T07:02:53;22.43;;;4.83;;
71696;SDS011;68167;59.120;37.898;2023-04-09T07:05:20;12.83;;;4.60;;
71696;SDS011;68167;59.120;37.898;2023-04-09T07:07:47;19.80;;;4.80;;
71696;SDS011;68167;59.120;37.898;2023-04-09T07:10:13;16.90;;;5.17;;
71696;SDS011;68167;59.120;37.898;2023-04-09T07:12:40;10.57;;;4.50;;
71696;SDS011;68167;59.120;37.898;2023-04-09T07:15:06;11.17;;;3.73;;
71696;SDS011;68167;59.120;37.898;2023-04-09T07:17:33;9.43;;;4.07;;
71696;SDS011;68167;59.120;37.898;2023-04-09T07:20:00;11.03;;;4.07;;
71696;SDS011;68167;59.120;37.898;2023-04-09T07:22:27;7.87;;;3.60;;
71696;SDS011;68167;59.120;37.898;2023-04-09T07:24:54;13.00;;;4.13;;
71696;SDS011;68167;59.120;37.898;2023-04-09T07:27:22;10.13;;;3.63;;
71696;SDS011;68167;59.120;37.898;2023-04-09T07:29:49;12.60;;;4.13;;
71696;SDS011;68167;59.120;37.898;2023-04-09T07:32:16;9.67;;;4.00;;
71696;SDS011;68167;59.120;37.898;2023-04-09T07:34:43;6.03;;;3.50;;
71696;SDS011;68167;59.120;37.898;2023-04-09T07:37:10;11.20;;;4.23;;
71696;SDS011;68167;59.120;37.898;2023-04-09T07:39:37;7.20;;;3.57;;
71696;SDS011;68167;59.120;37.898;2023-04-09T07:42:04;9.50;;;3.77;;
71696;SDS011;68167;59.120;37.898;2023-04-09T07:44:33;9.37;;;3.33;;
71696;SDS011;68167;59.120;37.898;2023-04-09T07:47:01;13.07;;;3.77;;
71696;SDS011;68167;59.120;37.898;2023-04-09T07:49:32;8.03;;;3.60;;
71696;SDS011;68167;59.120;37.898;2023-04-09T07:51:58;7.67;;;2.87;;
71696;SDS011;68167;59.120;37.898;2023-04-09T07:54:25;6.90;;;3.10;;
71696;SDS011;68167;59.120;37.898;2023-04-09T07:56:57;13.47;;;3.50;;
71696;SDS011;68167;59.120;37.898;2023-04-09T07:59:24;6.03;;;2.90;;
71696;SDS011;68167;59.120;37.898;2023-04-09T08:01:51;4.70;;;2.83;;
71696;SDS011;68167;59.120;37.898;2023-04-09T08:04:17;5.90;;;3.10;;
71696;SDS011;68167;59.120;37.898;2023-04-09T08:06:44;8.30;;;3.20;;
71696;SDS011;68167;59.120;37.898;2023-04-09T08:09:16;6.93;;;3.30;;
71696;SDS011;68167;59.120;37.898;2023-04-09T08:11:43;6.20;;;2.80;;
71696;SDS011;68167;59.120;37.898;2023-04-09T08:14:13;8.73;;;3.37;;
71696;SDS011;68167;59.120;37.898;2023-04-09T08:16:41;6.83;;;3.70;;
71696;SDS011;68167;59.120;37.898;2023-04-09T08:19:09;5.53;;;3.10;;
71696;SDS011;68167;59.120;37.898;2023-04-09T08:21:39;8.97;;;3.57;;
71696;SDS011;68167;59.120;37.898;2023-04-09T08:24:08;5.60;;;2.93;;
71696;SDS011;68167;59.120;37.898;2023-04-09T08:26:37;7.40;;;3.43;;
71696;SDS011;68167;59.120;37.898;2023-04-09T08:29:05;10.40;;;3.40;;
71696;SDS011;68167;59.120;37.898;2023-04-09T08:31:32;7.07;;;3.13;;
71696;SDS011;68167;59.120;37.898;2023-04-09T08:33:59;4.77;;;2.67;;
71696;SDS011;68167;59.120;37.898;2023-04-09T08:36:25;7.97;;;3.20;;
71696;SDS011;68167;59.120;37.898;2023-04-09T08:38:52;8.53;;;3.30;;
71696;SDS011;68167;59.120;37.898;2023-04-09T08:41:24;8.40;;;3.30;;
71696;SDS011;68167;59.120;37.898;2023-04-09T08:43:51;8.30;;;3.30;;
71696;SDS011;68167;59.120;37.898;2023-04-09T08:46:18;9.10;;;3.17;;
71696;SDS011;68167;59.120;37.898;2023-04-09T08:48:45;7.57;;;2.97;;
71696;SDS011;68167;59.120;37.898;2023-04-09T08:51:14;5.77;;;3.10;;
71696;SDS011;68167;59.120;37.898;2023-04-09T08:53:44;6.40;;;3.00;;
71696;SDS011;68167;59.120;37.898;2023-04-09T08:56:13;6.90;;;2.87;;
71696;SDS011;68167;59.120;37.898;2023-04-09T08:58:46;8.73;;;3.50;;
71696;SDS011;68167;59.120;37.898;2023-04-09T09:01:19;5.90;;;2.70;;
71696;SDS011;68167;59.120;37.898;2023-04-09T09:03:59;5.73;;;2.60;;
71696;SDS011;68167;59.120;37.898;2023-04-09T09:06:27;4.90;;;2.30;;
71696;SDS011;68167;59.120;37.898;2023-04-09T09:09:14;11.80;;;2.60;;
71696;SDS011;68167;59.120;37.898;2023-04-09T09:11:41;3.80;;;2.50;;
71696;SDS011;68167;59.120;37.898;2023-04-09T09:14:09;7.03;;;2.83;;
71696;SDS011;68167;59.120;37.898;2023-04-09T09:16:41;5.27;;;2.43;;
71696;SDS011;68167;59.120;37.898;2023-04-09T09:21:54;7.03;;;3.00;;
71696;SDS011;68167;59.120;37.898;2023-04-09T09:24:22;6.23;;;2.83;;
71696;SDS011;68167;59.120;37.898;2023-04-09T09:26:48;5.60;;;2.57;;
71696;SDS011;68167;59.120;37.898;2023-04-09T09:29:15;4.37;;;2.37;;
71696;SDS011;68167;59.120;37.898;2023-04-09T09:31:51;7.37;;;2.70;;
71696;SDS011;68167;59.120;37.898;2023-04-09T09:34:19;8.27;;;3.20;;
71696;SDS011;68167;59.120;37.898;2023-04-09T09:36:47;4.67;;;2.73;;
71696;SDS011;68167;59.120;37.898;2023-04-09T09:39:14;6.80;;;2.50;;
71696;SDS011;68167;59.120;37.898;2023-04-09T09:41:43;7.83;;;2.80;;
71696;SDS011;68167;59.120;37.898;2023-04-09T09:44:10;4.63;;;3.10;;
71696;SDS011;68167;59.120;37.898;2023-04-09T09:46:40;5.83;;;3.20;;
71696;SDS011;68167;59.120;37.898;2023-04-09T09:49:07;12.93;;;3.70;;
71696;SDS011;68167;59.120;37.898;2023-04-09T09:51:38;6.43;;;3.67;;
71696;SDS011;68167;59.120;37.898;2023-04-09T09:54:06;5.93;;;3.47;;
71696;SDS011;68167;59.120;37.898;2023-04-09T09:56:39;6.10;;;3.40;;
71696;SDS011;68167;59.120;37.898;2023-04-09T09:59:20;12.93;;;3.27;;
71696;SDS011;68167;59.120;37.898;2023-04-09T10:01:55;7.50;;;3.47;;
71696;SDS011;68167;59.120;37.898;2023-04-09T10:04:27;7.03;;;2.90;;
71696;SDS011;68167;59.120;37.898;2023-04-09T10:06:58;5.33;;;2.70;;
71696;SDS011;68167;59.120;37.898;2023-04-09T10:09:27;3.43;;;2.47;;
71696;SDS011;68167;59.120;37.898;2023-04-09T10:11:53;4.87;;;2.90;;
71696;SDS011;68167;59.120;37.898;2023-04-09T10:14:22;6.33;;;2.80;;
71696;SDS011;68167;59.120;37.898;2023-04-09T10:16:51;9.23;;;2.53;;
71696;SDS011;68167;59.120;37.898;2023-04-09T10:19:18;6.60;;;2.70;;
71696;SDS011;68167;59.120;37.898;2023-04-09T10:21:52;5.03;;;2.90;;
71696;SDS011;68167;59.120;37.898;2023-04-09T10:24:24;8.63;;;3.17;;
71696;SDS011;68167;59.120;37.898;2023-04-09T10:26:52;10.10;;;3.40;;
71696;SDS011;68167;59.120;37.898;2023-04-09T10:29:26;10.70;;;3.60;;
71696;SDS011;68167;59.120;37.898;2023-04-09T10:31:54;9.33;;;3.43;;
71696;SDS011;68167;59.120;37.898;2023-04-09T10:34:29;7.23;;;2.77;;
71696;SDS011;68167;59.120;37.898;2023-04-09T10:37:01;6.43;;;2.63;;
71696;SDS011;68167;59.120;37.898;2023-04-09T10:39:29;4.57;;;2.80;;
71696;SDS011;68167;59.120;37.898;2023-04-09T10:41:57;7.97;;;2.80;;
71696;SDS011;68167;59.120;37.898;2023-04-09T10:44:32;7.70;;;2.93;;
71696;SDS011;68167;59.120;37.898;2023-04-09T10:47:00;5.63;;;2.67;;
71696;SDS011;68167;59.120;37.898;2023-04-09T10:49:34;5.70;;;3.00;;
71696;SDS011;68167;59.120;37.898;2023-04-09T10:52:10;5.20;;;2.80;;
71696;SDS011;68167;59.120;37.898;2023-04-09T10:54:39;7.83;;;2.87;;
71696;SDS011;68167;59.120;37.898;2023-04-09T10:57:16;4.40;;;2.63;;
71696;SDS011;68167;59.120;37.898;2023-04-09T10:59:48;5.63;;;2.60;;
71696;SDS011;68167;59.120;37.898;2023-04-09T11:02:26;9.23;;;3.13;;
71696;SDS011;68167;59.120;37.898;2023-04-09T11:05:12;5.63;;;3.03;;
71696;SDS011;68167;59.120;37.898;2023-04-09T11:07:43;6.67;;;2.80;;
71696;SDS011;68167;59.120;37.898;2023-04-09T11:10:13;5.33;;;2.87;;
71696;SDS011;68167;59.120;37.898;2023-04-09T11:12:39;6.37;;;3.10;;
71696;SDS011;68167;59.120;37.898;2023-04-09T11:15:14;6.93;;;3.23;;
71696;SDS011;68167;59.120;37.898;2023-04-09T11:17:41;11.27;;;3.03;;
71696;SDS011;68167;59.120;37.898;2023-04-09T11:20:08;7.30;;;2.80;;
71696;SDS011;68167;59.120;37.898;2023-04-09T11:22:35;4.83;;;2.70;;
71696;SDS011;68167;59.120;37.898;2023-04-09T11:25:03;3.80;;;2.87;;
71696;SDS011;68167;59.120;37.898;2023-04-09T11:27:30;6.13;;;2.83;;
71696;SDS011;68167;59.120;37.898;2023-04-09T11:29:56;6.90;;;2.90;;
71696;SDS011;68167;59.120;37.898;2023-04-09T11:32:27;4.27;;;2.60;;
71696;SDS011;68167;59.120;37.898;2023-04-09T11:34:55;5.77;;;2.80;;
71696;SDS011;68167;59.120;37.898;2023-04-09T11:37:22;3.43;;;2.70;;
71696;SDS011;68167;59.120;37.898;2023-04-09T11:39:49;4.50;;;2.60;;
71696;SDS011;68167;59.120;37.898;2023-04-09T11:42:18;3.03;;;2.33;;
71696;SDS011;68167;59.120;37.898;2023-04-09T11:44:47;3.30;;;2.70;;
71696;SDS011;68167;59.120;37.898;2023-04-09T11:47:14;7.37;;;2.90;;
71696;SDS011;68167;59.120;37.898;2023-04-09T11:49:44;6.57;;;2.97;;
71696;SDS011;68167;59.120;37.898;2023-04-09T11:52:12;4.37;;;2.60;;
71696;SDS011;68167;59.120;37.898;2023-04-09T11:54:41;7.10;;;3.03;;
71696;SDS011;68167;59.120;37.898;2023-04-09T11:57:13;5.20;;;3.30;;
71696;SDS011;68167;59.120;37.898;2023-04-09T11:59:39;6.03;;;3.23;;
71696;SDS011;68167;59.120;37.898;2023-04-09T12:02:06;48.17;;;8.93;;
71696;SDS011;68167;59.120;37.898;2023-04-09T12:04:32;6.57;;;3.13;;
71696;SDS011;68167;59.120;37.898;2023-04-09T12:06:59;7.03;;;3.40;;
71696;SDS011;68167;59.120;37.898;2023-04-09T12:09:25;3.70;;;2.93;;
71696;SDS011;68167;59.120;37.898;2023-04-09T12:11:51;8.03;;;3.57;;
71696;SDS011;68167;59.120;37.898;2023-04-09T12:14:19;8.40;;;4.23;;
71696;SDS011;68167;59.120;37.898;2023-04-09T12:16:49;9.37;;;3.13;;
71696;SDS011;68167;59.120;37.898;2023-04-09T12:19:16;6.83;;;3.50;;
71696;SDS011;68167;59.120;37.898;2023-04-09T12:21:51;8.40;;;3.20;;
71696;SDS011;68167;59.120;37.898;2023-04-09T12:24:19;6.83;;;3.27;;
71696;SDS011;68167;59.120;37.898;2023-04-09T12:26:47;5.07;;;3.07;;
71696;SDS011;68167;59.120;37.898;2023-04-09T12:29:15;6.43;;;3.70;;
71696;SDS011;68167;59.120;37.898;2023-04-09T12:31:45;7.30;;;3.77;;
71696;SDS011;68167;59.120;37.898;2023-04-09T12:34:12;8.13;;;3.40;;
71696;SDS011;68167;59.120;37.898;2023-04-09T12:36:39;10.27;;;4.60;;
71696;SDS011;68167;59.120;37.898;2023-04-09T12:39:08;8.97;;;3.20;;
71696;SDS011;68167;59.120;37.898;2023-04-09T12:41:35;8.10;;;3.80;;
71696;SDS011;68167;59.120;37.898;2023-04-09T12:44:02;6.23;;;3.50;;
71696;SDS011;68167;59.120;37.898;2023-04-09T12:46:29;9.53;;;3.80;;
71696;SDS011;68167;59.120;37.898;2023-04-09T12:48:57;5.67;;;3.73;;
71696;SDS011;68167;59.120;37.898;2023-04-09T12:51:23;9.97;;;4.23;;
71696;SDS011;68167;59.120;37.898;2023-04-09T12:53:50;6.40;;;3.93;;
71696;SDS011;68167;59.120;37.898;2023-04-09T12:56:16;5.07;;;3.40;;
71696;SDS011;68167;59.120;37.898;2023-04-09T12:58:48;5.93;;;4.10;;
71696;SDS011;68167;59.120;37.898;2023-04-09T13:01:14;8.87;;;4.47;;
71696;SDS011;68167;59.120;37.898;2023-04-09T13:03:40;5.73;;;4.03;;
71696;SDS011;68167;59.120;37.898;2023-04-09T13:06:07;8.27;;;3.90;;
71696;SDS011;68167;59.120;37.898;2023-04-09T13:08:33;7.97;;;3.33;;
71696;SDS011;68167;59.120;37.898;2023-04-09T13:11:00;4.33;;;3.43;;
71696;SDS011;68167;59.120;37.898;2023-04-09T13:13:26;5.13;;;3.70;;
71696;SDS011;68167;59.120;37.898;2023-04-09T13:15:53;5.40;;;3.77;;
71696;SDS011;68167;59.120;37.898;2023-04-09T13:18:19;12.10;;;5.13;;
71696;SDS011;68167;59.120;37.898;2023-04-09T13:20:46;7.67;;;3.97;;
71696;SDS011;68167;59.120;37.898;2023-04-09T13:23:12;8.60;;;4.70;;
71696;SDS011;68167;59.120;37.898;2023-04-09T13:25:39;7.23;;;4.00;;
71696;SDS011;68167;59.120;37.898;2023-04-09T13:28:05;7.20;;;4.30;;
71696;SDS011;68167;59.120;37.898;2023-04-09T13:30:32;7.07;;;4.33;;
71696;SDS011;68167;59.120;37.898;2023-04-09T13:32:58;9.13;;;3.80;;
71696;SDS011;68167;59.120;37.898;2023-04-09T13:35:24;4.97;;;3.50;;
71696;SDS011;68167;59.120;37.898;2023-04-09T13:37:50;9.70;;;4.00;;
71696;SDS011;68167;59.120;37.898;2023-04-09T13:40:17;7.00;;;3.77;;
71696;SDS011;68167;59.120;37.898;2023-04-09T13:42:43;4.43;;;3.13;;
71696;SDS011;68167;59.120;37.898;2023-04-09T13:45:10;4.20;;;3.33;;
71696;SDS011;68167;59.120;37.898;2023-04-09T13:47:36;6.10;;;3.20;;
71696;SDS011;68167;59.120;37.898;2023-04-09T13:50:02;4.00;;;3.30;;
71696;SDS011;68167;59.120;37.898;2023-04-09T13:52:30;5.80;;;2.87;;
71696;SDS011;68167;59.120;37.898;2023-04-09T13:54:56;5.97;;;3.37;;
71696;SDS011;68167;59.120;37.898;2023-04-09T13:57:28;7.63;;;2.90;;
71696;SDS011;68167;59.120;37.898;2023-04-09T13:59:54;8.90;;;2.93;;
71696;SDS011;68167;59.120;37.898;2023-04-09T14:02:21;8.57;;;2.87;;
71696;SDS011;68167;59.120;37.898;2023-04-09T14:04:48;3.90;;;2.60;;
71696;SDS011;68167;59.120;37.898;2023-04-09T14:07:14;5.10;;;2.97;;
71696;SDS011;68167;59.120;37.898;2023-04-09T14:09:40;7.77;;;3.20;;
71696;SDS011;68167;59.120;37.898;2023-04-09T14:12:07;6.07;;;2.67;;
71696;SDS011;68167;59.120;37.898;2023-04-09T14:14:33;8.47;;;3.10;;
71696;SDS011;68167;59.120;37.898;2023-04-09T14:17:00;10.17;;;4.70;;
71696;SDS011;68167;59.120;37.898;2023-04-09T14:19:26;6.00;;;3.07;;
71696;SDS011;68167;59.120;37.898;2023-04-09T14:21:53;14.00;;;3.97;;
71696;SDS011;68167;59.120;37.898;2023-04-09T14:24:20;9.33;;;3.27;;
71696;SDS011;68167;59.120;37.898;2023-04-09T14:26:48;7.27;;;3.60;;
71696;SDS011;68167;59.120;37.898;2023-04-09T14:29:16;10.87;;;4.27;;
71696;SDS011;68167;59.120;37.898;2023-04-09T14:31:42;9.67;;;4.10;;
71696;SDS011;68167;59.120;37.898;2023-04-09T14:34:09;7.90;;;4.03;;
71696;SDS011;68167;59.120;37.898;2023-04-09T14:36:35;13.70;;;4.67;;
71696;SDS011;68167;59.120;37.898;2023-04-09T14:39:01;27.97;;;6.27;;
71696;SDS011;68167;59.120;37.898;2023-04-09T14:41:28;8.87;;;4.47;;
71696;SDS011;68167;59.120;37.898;2023-04-09T14:43:54;11.90;;;5.03;;
71696;SDS011;68167;59.120;37.898;2023-04-09T14:46:20;8.37;;;4.40;;